createdAt,value
2022-11-11T00:00:18.148Z,10.73
2022-11-11T00:01:16.831Z,10.73
2022-11-11T00:02:17.806Z,10.73
2022-11-11T00:03:22.484Z,10.72
2022-11-11T00:04:17.375Z,10.71
2022-11-11T00:05:17.381Z,10.70
2022-11-11T00:06:17.213Z,10.68
2022-11-11T00:07:17.066Z,10.69
2022-11-11T00:08:16.827Z,10.66
2022-11-11T00:09:18.133Z,10.65
2022-11-11T00:10:17.269Z,10.64
2022-11-11T00:11:17.265Z,10.61
2022-11-11T00:12:18.994Z,10.62
2022-11-11T00:13:17.213Z,10.60
2022-11-11T00:14:17.188Z,10.56
2022-11-11T00:15:17.178Z,10.56
2022-11-11T00:16:17.047Z,10.59
2022-11-11T00:17:16.941Z,10.61
2022-11-11T00:18:18.086Z,10.60
2022-11-11T00:19:16.753Z,10.60
2022-11-11T00:20:18.923Z,10.61
2022-11-11T00:21:17.393Z,10.61
2022-11-11T00:22:17.350Z,10.60
2022-11-11T00:23:17.321Z,10.62
2022-11-11T00:24:17.099Z,10.63
2022-11-11T00:25:17.749Z,10.60
2022-11-11T00:26:44.948Z,10.60
2022-11-11T00:27:17.248Z,10.60
2022-11-11T00:28:17.099Z,10.61
2022-11-11T00:29:17.223Z,10.58
2022-11-11T00:30:17.350Z,10.59
2022-11-11T00:31:17.123Z,10.59
2022-11-11T00:32:17.256Z,10.59
2022-11-11T00:33:17.294Z,10.59
2022-11-11T00:34:17.259Z,10.59
2022-11-11T00:35:17.302Z,10.57
2022-11-11T00:36:15.917Z,10.57
2022-11-11T00:37:15.763Z,10.56
2022-11-11T00:38:17.564Z,10.59
2022-11-11T00:39:17.039Z,10.60
2022-11-11T00:40:16.950Z,10.60
2022-11-11T00:41:17.752Z,10.62
2022-11-11T00:42:17.202Z,10.62
2022-11-11T00:43:17.130Z,10.61
2022-11-11T00:44:17.044Z,10.61
2022-11-11T00:45:17.283Z,10.63
2022-11-11T00:46:16.954Z,10.64
2022-11-11T00:47:17.724Z,10.65
2022-11-11T00:48:17.514Z,10.64
2022-11-11T00:49:17.162Z,10.65
2022-11-11T00:50:17.147Z,10.66
2022-11-11T00:51:17.069Z,10.65
2022-11-11T00:52:16.243Z,10.67
2022-11-11T00:53:20.334Z,10.68
2022-11-11T00:54:17.176Z,10.69
2022-11-11T00:55:16.811Z,10.69
2022-11-11T00:56:17.465Z,10.68
2022-11-11T00:57:17.530Z,10.68
2022-11-11T00:58:17.166Z,10.68
2022-11-11T00:59:17.208Z,10.69
2022-11-11T01:00:17.666Z,10.68
2022-11-11T01:01:19.616Z,10.66
2022-11-11T01:02:17.910Z,10.67
2022-11-11T01:03:17.955Z,10.67
2022-11-11T01:04:17.989Z,10.67
2022-11-11T01:05:17.321Z,10.68
2022-11-11T01:06:17.498Z,10.68
2022-11-11T01:07:17.215Z,10.67
2022-11-11T01:08:16.708Z,10.68
2022-11-11T01:09:18.111Z,10.67
2022-11-11T01:10:17.108Z,10.65
2022-11-11T01:11:17.274Z,10.66
2022-11-11T01:12:17.065Z,10.65
2022-11-11T01:13:16.717Z,10.64
2022-11-11T01:14:17.396Z,10.63
2022-11-11T01:15:17.311Z,10.61
2022-11-11T01:16:17.065Z,10.57
2022-11-11T01:17:17.194Z,10.55
2022-11-11T01:18:17.329Z,10.56
2022-11-11T01:19:17.233Z,10.54
2022-11-11T01:20:17.376Z,10.48
2022-11-11T01:21:17.307Z,10.46
2022-11-11T01:22:17.192Z,10.45
2022-11-11T01:23:16.875Z,10.44
2022-11-11T01:24:18.032Z,10.44
2022-11-11T01:25:16.885Z,10.44
2022-11-11T01:26:17.989Z,10.43
2022-11-11T01:27:16.636Z,10.42
2022-11-11T01:28:17.333Z,10.41
2022-11-11T01:29:17.252Z,10.35
2022-11-11T01:30:17.277Z,10.37
2022-11-11T01:31:16.894Z,10.37
2022-11-11T01:32:18.035Z,10.36
2022-11-11T01:33:16.584Z,10.30
2022-11-11T01:34:17.217Z,10.32
2022-11-11T01:35:16.952Z,10.30
2022-11-11T01:36:17.656Z,10.25
2022-11-11T01:37:17.104Z,10.25
2022-11-11T01:38:16.686Z,10.23
2022-11-11T01:39:17.264Z,10.23
2022-11-11T01:40:16.962Z,10.18
2022-11-11T01:41:17.608Z,10.20
2022-11-11T01:42:17.459Z,10.19
2022-11-11T01:43:17.037Z,10.16
2022-11-11T01:44:16.384Z,10.14
2022-11-11T01:45:17.486Z,10.15
2022-11-11T01:46:17.033Z,10.09
2022-11-11T01:47:16.578Z,10.09
2022-11-11T01:48:34.140Z,10.09
2022-11-11T01:49:17.366Z,10.09
2022-11-11T01:50:17.439Z,10.09
2022-11-11T01:51:17.293Z,10.07
2022-11-11T01:52:16.780Z,10.05
2022-11-11T01:53:17.388Z,10.09
2022-11-11T01:54:17.090Z,10.10
2022-11-11T01:55:16.794Z,10.13
2022-11-11T01:56:18.013Z,10.10
2022-11-11T01:57:17.148Z,10.08
2022-11-11T01:58:16.808Z,10.01
2022-11-11T01:59:17.956Z,9.992
2022-11-11T02:00:18.708Z,10.02
2022-11-11T02:01:17.695Z,10.03
2022-11-11T02:02:17.601Z,10.04
2022-11-11T02:03:18.164Z,10.02
2022-11-11T02:04:17.314Z,9.975
2022-11-11T02:05:17.162Z,9.927
2022-11-11T02:06:16.918Z,9.850
2022-11-11T02:07:18.919Z,9.828
2022-11-11T02:08:17.359Z,9.807
2022-11-11T02:09:17.201Z,9.804
2022-11-11T02:10:17.529Z,9.784
2022-11-11T02:11:17.524Z,9.732
2022-11-11T02:12:17.376Z,9.718
2022-11-11T02:13:17.201Z,9.714
2022-11-11T02:14:16.967Z,9.720
2022-11-11T02:15:18.486Z,9.692
2022-11-11T02:16:16.965Z,9.692
2022-11-11T02:17:18.127Z,9.681
2022-11-11T02:18:17.022Z,9.652
2022-11-11T02:19:16.032Z,9.644
2022-11-11T02:20:16.599Z,9.618
2022-11-11T02:21:17.493Z,9.608
2022-11-11T02:22:17.623Z,9.593
2022-11-11T02:23:17.575Z,9.575
2022-11-11T02:24:17.753Z,9.604
2022-11-11T02:25:18.183Z,9.609
2022-11-11T02:26:16.774Z,9.614
2022-11-11T02:27:17.795Z,9.619
2022-11-11T02:28:17.631Z,9.590
2022-11-11T02:29:17.517Z,9.583
2022-11-11T02:30:17.723Z,9.563
2022-11-11T02:31:17.772Z,9.518
2022-11-11T02:32:17.917Z,9.511
2022-11-11T02:33:18.022Z,9.498
2022-11-11T02:34:16.837Z,9.483
2022-11-11T02:35:17.751Z,9.476
2022-11-11T02:36:17.867Z,9.458
2022-11-11T02:37:17.861Z,9.406
2022-11-11T02:38:18.147Z,9.404
2022-11-11T02:39:17.030Z,9.398
2022-11-11T02:40:16.893Z,9.390
2022-11-11T02:41:18.254Z,9.364
2022-11-11T02:42:17.140Z,9.381
2022-11-11T02:43:16.704Z,9.371
2022-11-11T02:44:17.152Z,9.363
2022-11-11T02:45:17.440Z,9.378
2022-11-11T02:46:17.313Z,9.404
2022-11-11T02:47:31.150Z,9.449
2022-11-11T02:48:16.741Z,9.449
2022-11-11T02:49:17.363Z,9.456
2022-11-11T02:50:17.177Z,9.488
2022-11-11T02:51:16.985Z,9.515
2022-11-11T02:52:17.078Z,9.536
2022-11-11T02:53:16.757Z,9.553
2022-11-11T02:54:17.871Z,9.563
2022-11-11T02:55:17.900Z,9.558
2022-11-11T02:56:16.811Z,9.563
2022-11-11T02:57:17.734Z,9.585
2022-11-11T02:58:17.830Z,9.600
2022-11-11T02:59:18.024Z,9.609
2022-11-11T03:00:17.618Z,9.621
2022-11-11T03:01:17.450Z,9.593
2022-11-11T03:02:17.153Z,9.568
2022-11-11T03:03:17.165Z,9.551
2022-11-11T03:04:17.295Z,9.558
2022-11-11T03:05:17.709Z,9.528
2022-11-11T03:06:17.760Z,9.529
2022-11-11T03:07:17.632Z,9.561
2022-11-11T03:08:17.614Z,9.585
2022-11-11T03:09:17.717Z,9.590
2022-11-11T03:10:17.664Z,9.581
2022-11-11T03:11:18.004Z,9.586
2022-11-11T03:12:16.760Z,9.579
2022-11-11T03:13:18.213Z,9.581
2022-11-11T03:14:17.278Z,9.583
2022-11-11T03:15:17.641Z,9.581
2022-11-11T03:16:17.521Z,9.579
2022-11-11T03:17:17.333Z,9.576
2022-11-11T03:18:16.931Z,9.550
2022-11-11T03:19:17.881Z,9.541
2022-11-11T03:20:17.517Z,9.520
2022-11-11T03:22:59.171Z,9.476
2022-11-11T03:23:03.110Z,9.476
2022-11-11T03:23:17.419Z,9.476
2022-11-11T03:24:17.135Z,9.470
2022-11-11T03:25:17.058Z,9.465
2022-11-11T03:26:16.917Z,9.471
2022-11-11T03:27:17.587Z,9.465
2022-11-11T03:28:16.899Z,9.478
2022-11-11T03:29:17.949Z,9.479
2022-11-11T03:30:17.876Z,9.498
2022-11-11T03:31:17.997Z,9.488
2022-11-11T03:32:16.312Z,9.494
2022-11-11T03:33:17.091Z,9.497
2022-11-11T03:34:16.544Z,9.479
2022-11-11T03:35:17.123Z,9.467
2022-11-11T03:36:16.623Z,9.454
2022-11-11T03:37:17.033Z,9.439
2022-11-11T03:38:16.519Z,9.439
2022-11-11T03:39:17.175Z,9.442
2022-11-11T03:40:16.897Z,9.446
2022-11-11T03:41:17.559Z,9.454
2022-11-11T03:42:16.990Z,9.442
2022-11-11T03:43:16.616Z,9.427
2022-11-11T03:44:16.676Z,9.411
2022-11-11T03:45:17.629Z,9.392
2022-11-11T03:46:16.807Z,9.402
2022-11-11T03:47:17.644Z,9.397
2022-11-11T03:48:16.976Z,9.387
2022-11-11T03:49:17.603Z,9.381
2022-11-11T03:50:17.409Z,9.394
2022-11-11T03:51:17.286Z,9.407
2022-11-11T03:52:16.769Z,9.416
2022-11-11T03:53:17.218Z,9.427
2022-11-11T03:54:16.525Z,9.437
2022-11-11T03:55:17.096Z,9.434
2022-11-11T03:56:16.452Z,9.447
2022-11-11T03:57:16.989Z,9.454
2022-11-11T03:58:16.872Z,9.456
2022-11-11T03:59:17.865Z,9.470
2022-11-11T04:00:21.024Z,9.476
2022-11-11T04:01:17.230Z,9.483
2022-11-11T04:02:17.015Z,9.476
2022-11-11T04:03:16.734Z,9.484
2022-11-11T04:04:17.495Z,9.484
2022-11-11T04:05:17.356Z,9.488
2022-11-11T04:06:17.120Z,9.496
2022-11-11T04:07:16.985Z,9.489
2022-11-11T04:08:16.670Z,9.489
2022-11-11T04:09:17.630Z,9.484
2022-11-11T04:10:17.066Z,9.488
2022-11-11T04:11:16.929Z,9.484
2022-11-11T04:12:17.617Z,9.465
2022-11-11T04:13:17.515Z,9.458
2022-11-11T04:14:16.907Z,9.456
2022-11-11T04:15:17.985Z,9.448
2022-11-11T04:16:16.160Z,9.463
2022-11-11T04:17:16.851Z,9.454
2022-11-11T04:18:17.534Z,9.458
2022-11-11T04:19:17.274Z,9.465
2022-11-11T04:20:16.689Z,9.456
2022-11-11T04:21:17.516Z,9.448
2022-11-11T04:22:17.393Z,9.456
2022-11-11T04:23:17.009Z,9.465
2022-11-11T04:24:16.468Z,9.476
2022-11-11T04:25:17.232Z,9.470
2022-11-11T04:26:16.576Z,9.478
2022-11-11T04:27:17.260Z,9.488
2022-11-11T04:28:16.768Z,9.5
2022-11-11T04:29:17.753Z,9.494
2022-11-11T04:30:17.808Z,9.510
2022-11-11T04:31:17.460Z,9.524
2022-11-11T04:32:17.367Z,9.518
2022-11-11T04:33:17.225Z,9.513
2022-11-11T04:34:16.686Z,9.523
2022-11-11T04:35:17.564Z,9.520
2022-11-11T04:36:16.705Z,9.510
2022-11-11T04:38:07.165Z,9.5
2022-11-11T04:38:17.225Z,9.5
2022-11-11T04:39:17.359Z,9.506
2022-11-11T04:40:16.989Z,9.493
2022-11-11T04:41:16.875Z,9.496
2022-11-11T04:42:17.646Z,9.491
2022-11-11T04:43:17.371Z,9.479
2022-11-11T04:44:17.096Z,9.483
2022-11-11T04:45:17.108Z,9.479
2022-11-11T04:46:16.623Z,9.476
2022-11-11T04:47:17.662Z,9.458
2022-11-11T04:48:17.376Z,9.458
2022-11-11T04:49:17.082Z,9.460
2022-11-11T04:50:16.937Z,9.460
2022-11-11T04:51:17.843Z,9.456
2022-11-11T04:52:17.455Z,9.441
2022-11-11T04:53:17.060Z,9.438
2022-11-11T04:54:16.655Z,9.441
2022-11-11T04:55:21.621Z,9.431
2022-11-11T04:56:16.520Z,9.430
2022-11-11T04:57:17.494Z,9.425
2022-11-11T04:58:16.700Z,9.409
2022-11-11T04:59:17.513Z,9.399
2022-11-11T05:00:18.155Z,9.376
2022-11-11T05:01:17.166Z,9.366
2022-11-11T05:02:16.995Z,9.356
2022-11-11T05:03:16.726Z,9.340
2022-11-11T05:04:17.084Z,9.313
2022-11-11T05:05:17.095Z,9.293
2022-11-11T05:06:16.541Z,9.265
2022-11-11T05:07:17.361Z,9.239
2022-11-11T05:08:17.230Z,9.236
2022-11-11T05:09:17.476Z,9.237
2022-11-11T05:10:17.393Z,9.223
2022-11-11T05:11:17.168Z,9.215
2022-11-11T05:12:16.427Z,9.211
2022-11-11T05:13:22.403Z,9.204
2022-11-11T05:14:17.235Z,9.233
2022-11-11T05:15:17.460Z,9.253
2022-11-11T05:16:17.410Z,9.276
2022-11-11T05:17:17.546Z,9.308
2022-11-11T05:18:17.165Z,9.338
2022-11-11T05:19:17.191Z,9.364
2022-11-11T05:20:16.635Z,9.390
2022-11-11T05:21:17.310Z,9.431
2022-11-11T05:22:16.687Z,9.447
2022-11-11T05:23:18.022Z,9.447
2022-11-11T05:24:30.472Z,9.458
2022-11-11T05:25:17.538Z,9.464
2022-11-11T05:26:17.080Z,9.472
2022-11-11T05:27:16.669Z,9.477
2022-11-11T05:28:17.467Z,9.489
2022-11-11T05:29:17.219Z,9.485
2022-11-11T05:30:17.368Z,9.503
2022-11-11T05:31:17.131Z,9.517
2022-11-11T05:32:16.905Z,9.522
2022-11-11T05:33:17.924Z,9.514
2022-11-11T05:34:17.717Z,9.522
2022-11-11T05:35:17.500Z,9.506
2022-11-11T05:36:17.103Z,9.508
2022-11-11T05:37:17.017Z,9.518
2022-11-11T05:38:16.980Z,9.515
2022-11-11T05:39:18.050Z,9.524
2022-11-11T05:40:16.831Z,9.524
2022-11-11T05:41:17.657Z,9.526
2022-11-11T05:42:17.162Z,9.520
2022-11-11T05:43:16.982Z,9.531
2022-11-11T05:44:16.264Z,9.546
2022-11-11T05:45:17.125Z,9.545
2022-11-11T05:46:16.634Z,9.539
2022-11-11T05:47:17.365Z,9.551
2022-11-11T05:48:17.043Z,9.558
2022-11-11T05:49:16.636Z,9.568
2022-11-11T05:50:16.966Z,9.574
2022-11-11T05:51:17.763Z,9.563
2022-11-11T05:52:17.140Z,9.583
2022-11-11T05:53:16.896Z,9.598
2022-11-11T05:54:17.128Z,9.601
2022-11-11T05:55:17.000Z,9.608
2022-11-11T05:56:16.497Z,9.618
2022-11-11T05:57:17.270Z,9.645
2022-11-11T05:58:16.484Z,9.661
2022-11-11T05:59:17.334Z,9.659
2022-11-11T06:00:17.925Z,9.661
2022-11-11T06:01:17.711Z,9.675
2022-11-11T06:02:17.474Z,9.675
2022-11-11T06:03:17.362Z,9.686
2022-11-11T06:05:17.915Z,9.698
2022-11-11T06:06:17.404Z,9.698
2022-11-11T06:07:17.392Z,9.696
2022-11-11T06:08:16.721Z,9.680
2022-11-11T06:09:17.641Z,9.686
2022-11-11T06:10:17.770Z,9.681
2022-11-11T06:11:17.988Z,9.681
2022-11-11T06:12:16.554Z,9.675
2022-11-11T06:13:17.451Z,9.680
2022-11-11T06:14:17.116Z,9.688
2022-11-11T06:15:17.307Z,9.683
2022-11-11T06:16:16.896Z,9.671
2022-11-11T06:17:18.085Z,9.668
2022-11-11T06:18:17.059Z,9.661
2022-11-11T06:19:17.030Z,9.654
2022-11-11T06:20:16.453Z,9.666
2022-11-11T06:21:17.414Z,9.649
2022-11-11T06:23:16.836Z,9.628
2022-11-11T06:24:17.372Z,9.595
2022-11-11T06:25:17.498Z,9.611
2022-11-11T06:26:17.477Z,9.625
2022-11-11T06:27:17.455Z,9.631
2022-11-11T06:28:16.894Z,9.661
2022-11-11T06:29:17.517Z,9.698
2022-11-11T06:30:51.223Z,9.738
2022-11-11T06:31:17.340Z,9.738
2022-11-11T06:32:16.870Z,9.756
2022-11-11T06:33:17.687Z,9.773
2022-11-11T06:34:17.426Z,9.774
2022-11-11T06:35:17.323Z,9.788
2022-11-11T06:36:16.745Z,9.776
2022-11-11T06:37:17.577Z,9.785
2022-11-11T06:38:17.328Z,9.800
2022-11-11T06:39:17.219Z,9.781
2022-11-11T06:40:21.605Z,9.776
2022-11-11T06:41:16.790Z,9.781
2022-11-11T06:42:18.070Z,9.784
2022-11-11T06:43:17.328Z,9.787
2022-11-11T06:44:17.327Z,9.789
2022-11-11T06:45:17.777Z,9.789
2022-11-11T06:47:17.459Z,9.804
2022-11-11T06:48:17.191Z,9.789
2022-11-11T06:49:16.719Z,9.789
2022-11-11T06:50:17.291Z,9.772
2022-11-11T06:51:17.079Z,9.770
2022-11-11T06:52:16.964Z,9.755
2022-11-11T06:53:17.913Z,9.751
2022-11-11T06:54:17.483Z,9.732
2022-11-11T06:55:17.418Z,9.738
2022-11-11T06:56:16.916Z,9.746
2022-11-11T06:57:17.762Z,9.739
2022-11-11T06:58:17.233Z,9.744
2022-11-11T06:59:17.204Z,9.742
2022-11-11T07:00:17.885Z,9.741
2022-11-11T07:01:17.555Z,9.732
2022-11-11T07:02:17.044Z,9.720
2022-11-11T07:03:20.284Z,9.692
2022-11-11T07:04:17.155Z,9.689
2022-11-11T07:05:17.182Z,9.682
2022-11-11T07:06:16.771Z,9.710
2022-11-11T07:07:18.079Z,9.729
2022-11-11T07:08:16.972Z,9.722
2022-11-11T07:09:17.813Z,9.732
2022-11-11T07:10:17.168Z,9.734
2022-11-11T07:11:24.822Z,9.738
2022-11-11T07:12:17.384Z,9.738
2022-11-11T07:13:17.052Z,9.728
2022-11-11T07:14:16.178Z,9.736
2022-11-11T07:15:17.332Z,9.738
2022-11-11T07:16:17.002Z,9.731
2022-11-11T07:17:16.679Z,9.710
2022-11-11T07:18:17.255Z,9.726
2022-11-11T07:19:17.365Z,9.726
2022-11-11T07:20:17.481Z,9.728
2022-11-11T07:21:22.253Z,9.734
2022-11-11T07:22:16.873Z,9.734
2022-11-11T07:23:18.003Z,9.746
2022-11-11T07:24:16.719Z,9.743
2022-11-11T07:25:22.380Z,9.718
2022-11-11T07:26:16.986Z,9.718
2022-11-11T07:27:24.672Z,9.720
2022-11-11T07:28:17.071Z,9.720
2022-11-11T07:29:16.838Z,9.738
2022-11-11T07:30:17.894Z,9.760
2022-11-11T07:31:25.188Z,9.755
2022-11-11T07:32:16.818Z,9.755
2022-11-11T07:33:30.717Z,9.761
2022-11-11T07:34:17.535Z,9.761
2022-11-11T07:35:17.547Z,9.771
2022-11-11T07:36:17.345Z,9.778
2022-11-11T07:37:22.299Z,9.805
2022-11-11T07:38:17.207Z,9.805
2022-11-11T07:39:17.312Z,9.803
2022-11-11T07:40:16.967Z,9.810
2022-11-11T07:41:18.030Z,9.805
2022-11-11T07:42:37.195Z,9.841
2022-11-11T07:43:17.064Z,9.841
2022-11-11T07:44:17.056Z,9.846
2022-11-11T07:45:17.025Z,9.829
2022-11-11T07:46:16.729Z,9.841
2022-11-11T07:47:31.065Z,9.821
2022-11-11T07:48:16.860Z,9.821
2022-11-11T07:49:17.988Z,9.836
2022-11-11T07:50:16.726Z,9.835
2022-11-11T07:51:17.550Z,9.841
2022-11-11T07:52:17.058Z,9.843
2022-11-11T07:53:17.200Z,9.846
2022-11-11T07:54:16.691Z,9.856
2022-11-11T07:55:17.698Z,9.854
2022-11-11T07:56:17.416Z,9.859
2022-11-11T07:57:17.337Z,9.858
2022-11-11T07:58:16.782Z,9.863
2022-11-11T07:59:17.781Z,9.859
2022-11-11T08:00:18.615Z,9.876
2022-11-11T08:01:17.979Z,9.854
2022-11-11T08:02:16.703Z,9.853
2022-11-11T08:03:17.531Z,9.869
2022-11-11T08:04:16.854Z,9.886
2022-11-11T08:05:17.651Z,9.890
2022-11-11T08:06:17.509Z,9.890
2022-11-11T08:07:21.562Z,9.893
2022-11-11T08:08:16.643Z,9.918
2022-11-11T08:09:17.501Z,9.918
2022-11-11T08:10:17.394Z,9.934
2022-11-11T08:11:44.828Z,9.946
2022-11-11T08:12:21.944Z,9.946
2022-11-11T08:13:17.307Z,9.971
2022-11-11T08:14:16.955Z,9.963
2022-11-11T08:15:17.991Z,9.974
2022-11-11T08:16:16.344Z,9.973
2022-11-11T08:17:17.230Z,9.989
2022-11-11T08:18:16.615Z,10.01
2022-11-11T08:19:17.046Z,10.03
2022-11-11T08:20:16.410Z,10.05
2022-11-11T08:21:17.130Z,10.07
2022-11-11T08:22:16.580Z,10.06
2022-11-11T08:25:02.305Z,10.07
2022-11-11T08:25:04.338Z,10.08
2022-11-11T08:25:18.179Z,10.08
2022-11-11T08:26:16.405Z,10.07
2022-11-11T08:27:17.348Z,10.06
2022-11-11T08:28:17.229Z,10.06
2022-11-11T08:29:16.684Z,10.06
2022-11-11T08:30:17.229Z,10.06
2022-11-11T08:31:16.777Z,10.06
2022-11-11T08:32:17.237Z,10.07
2022-11-11T08:33:40.235Z,10.10
2022-11-11T08:34:16.899Z,10.10
2022-11-11T08:35:17.716Z,10.11
2022-11-11T08:37:16.933Z,10.12
2022-11-11T08:38:17.192Z,10.13
2022-11-11T08:39:16.923Z,10.14
2022-11-11T08:40:17.657Z,10.16
2022-11-11T08:41:17.280Z,10.18
2022-11-11T08:42:17.236Z,10.21
2022-11-11T08:43:17.099Z,10.22
2022-11-11T08:44:16.685Z,10.27
2022-11-11T08:45:17.755Z,10.33
2022-11-11T08:46:17.389Z,10.37
2022-11-11T08:47:17.406Z,10.39
2022-11-11T08:48:17.166Z,10.42
2022-11-11T08:49:16.859Z,10.39
2022-11-11T08:50:17.490Z,10.37
2022-11-11T08:51:17.157Z,10.39
2022-11-11T08:52:16.584Z,10.39
2022-11-11T08:53:17.645Z,10.39
2022-11-11T08:54:17.566Z,10.39
2022-11-11T08:55:17.307Z,10.38
2022-11-11T08:56:18.229Z,10.39
2022-11-11T08:57:17.155Z,10.40
2022-11-11T08:58:19.832Z,10.42
2022-11-11T08:59:17.196Z,10.43
2022-11-11T09:00:17.972Z,10.46
2022-11-11T09:01:18.253Z,10.47
2022-11-11T09:02:17.046Z,10.49
2022-11-11T09:03:17.019Z,10.51
2022-11-11T09:04:54.422Z,10.53
2022-11-11T09:05:17.191Z,10.53
2022-11-11T09:06:16.894Z,10.53
2022-11-11T09:07:18.104Z,10.56
2022-11-11T09:08:16.973Z,10.56
2022-11-11T09:09:17.101Z,10.57
2022-11-11T09:10:16.922Z,10.57
2022-11-11T09:11:17.806Z,10.58
2022-11-11T09:12:17.532Z,10.60
2022-11-11T09:13:17.335Z,10.59
2022-11-11T09:14:17.157Z,10.60
2022-11-11T09:15:16.928Z,10.61
2022-11-11T09:16:17.526Z,10.61
2022-11-11T09:17:17.206Z,10.62
2022-11-11T09:18:16.893Z,10.63
2022-11-11T09:19:18.235Z,10.64
2022-11-11T09:20:22.204Z,10.65
2022-11-11T09:21:17.523Z,10.66
2022-11-11T09:22:16.985Z,10.67
2022-11-11T09:23:16.969Z,10.68
2022-11-11T09:24:17.494Z,10.69
2022-11-11T09:25:17.910Z,10.71
2022-11-11T09:26:17.966Z,10.71
2022-11-11T09:27:17.665Z,10.72
2022-11-11T09:28:17.188Z,10.73
2022-11-11T09:29:16.898Z,10.73
2022-11-11T09:30:18.062Z,10.76
2022-11-11T09:31:50.212Z,10.79
2022-11-11T09:32:17.061Z,10.79
2022-11-11T09:33:16.626Z,10.80
2022-11-11T09:34:16.878Z,10.83
2022-11-11T09:35:17.921Z,10.84
2022-11-11T09:36:17.407Z,10.85
2022-11-11T09:37:16.926Z,10.85
2022-11-11T09:38:17.853Z,10.85
2022-11-11T09:39:17.781Z,10.85
2022-11-11T09:40:17.495Z,10.85
2022-11-11T09:41:17.058Z,10.88
2022-11-11T09:42:16.725Z,10.88
2022-11-11T09:43:17.379Z,10.89
2022-11-11T09:44:16.941Z,10.90
2022-11-11T09:45:18.145Z,10.90
2022-11-11T09:46:16.824Z,10.92
2022-11-11T09:47:17.759Z,10.93
2022-11-11T09:48:22.306Z,10.95
2022-11-11T09:49:17.085Z,10.96
2022-11-11T09:50:16.531Z,10.97
2022-11-11T09:51:17.393Z,11.00
2022-11-11T09:52:17.182Z,11.02
2022-11-11T09:53:17.102Z,11.05
2022-11-11T09:54:20.373Z,11.08
2022-11-11T09:55:17.695Z,11.10
2022-11-11T09:56:36.665Z,11.12
2022-11-11T09:57:17.715Z,11.12
2022-11-11T09:58:17.259Z,11.14
2022-11-11T09:59:17.172Z,11.17
2022-11-11T10:00:21.632Z,11.19
2022-11-11T10:01:17.629Z,11.21
2022-11-11T10:02:17.199Z,11.22
2022-11-11T10:03:17.123Z,11.25
2022-11-11T10:04:16.650Z,11.26
2022-11-11T10:05:17.955Z,11.28
2022-11-11T10:06:22.617Z,11.31
2022-11-11T10:07:17.190Z,11.30
2022-11-11T10:08:17.035Z,11.31
2022-11-11T10:09:17.232Z,11.31
2022-11-11T10:10:25.237Z,11.31
2022-11-11T10:11:17.448Z,11.31
2022-11-11T10:12:30.971Z,11.35
2022-11-11T10:13:18.437Z,11.35
2022-11-11T10:14:17.289Z,11.35
2022-11-11T10:15:17.500Z,11.36
2022-11-11T10:16:17.212Z,11.37
2022-11-11T10:17:17.123Z,11.40
2022-11-11T10:19:17.574Z,11.46
2022-11-11T10:20:16.650Z,11.45
2022-11-11T10:21:17.664Z,11.44
2022-11-11T10:22:19.591Z,11.49
2022-11-11T10:23:17.324Z,11.52
2022-11-11T10:24:16.801Z,11.53
2022-11-11T10:25:17.919Z,11.52
2022-11-11T10:26:17.730Z,11.52
2022-11-11T10:27:17.628Z,11.54
2022-11-11T10:28:17.071Z,11.55
2022-11-11T10:29:16.849Z,11.56
2022-11-11T10:30:18.873Z,11.58
2022-11-11T10:31:18.293Z,11.58
2022-11-11T10:32:16.851Z,11.59
2022-11-11T10:33:17.812Z,11.58
2022-11-11T10:34:17.428Z,11.57
2022-11-11T10:35:17.675Z,11.57
2022-11-11T10:36:17.205Z,11.59
2022-11-11T10:37:16.927Z,11.61
2022-11-11T10:38:17.978Z,11.64
2022-11-11T10:39:17.362Z,11.68
2022-11-11T10:40:17.038Z,11.70
2022-11-11T10:41:16.840Z,11.73
2022-11-11T10:42:17.652Z,11.78
2022-11-11T10:43:17.888Z,11.81
2022-11-11T10:44:18.071Z,11.82
2022-11-11T10:45:17.504Z,11.84
2022-11-11T10:46:17.061Z,11.87
2022-11-11T10:47:17.414Z,11.92
2022-11-11T10:48:17.286Z,11.96
2022-11-11T10:49:17.493Z,11.97
2022-11-11T10:50:17.408Z,11.98
2022-11-11T10:51:17.518Z,12
2022-11-11T10:52:17.177Z,12.02
2022-11-11T10:53:17.203Z,12.04
2022-11-11T10:54:16.932Z,12.07
2022-11-11T10:55:18.013Z,12.10
2022-11-11T10:56:16.967Z,12.13
2022-11-11T10:57:17.864Z,12.14
2022-11-11T10:58:17.682Z,12.16
2022-11-11T10:59:18.170Z,12.18
2022-11-11T11:00:45.231Z,12.25
2022-11-11T11:01:17.272Z,12.25
2022-11-11T11:02:18.219Z,12.28
2022-11-11T11:03:17.372Z,12.30
2022-11-11T11:04:17.016Z,12.31
2022-11-11T11:05:17.160Z,12.32
2022-11-11T11:06:17.016Z,12.34
2022-11-11T11:07:17.599Z,12.37
2022-11-11T11:08:17.443Z,12.39
2022-11-11T11:09:17.838Z,12.41
2022-11-11T11:10:17.797Z,12.43
2022-11-11T11:11:18.051Z,12.45
2022-11-11T11:12:16.937Z,12.47
2022-11-11T11:13:18.170Z,12.50
2022-11-11T11:14:17.331Z,12.51
2022-11-11T11:15:17.372Z,12.53
2022-11-11T11:16:17.479Z,12.54
2022-11-11T11:17:17.406Z,12.53
2022-11-11T11:18:17.567Z,12.55
2022-11-11T11:19:18.022Z,12.57
2022-11-11T11:20:16.988Z,12.60
2022-11-11T11:21:17.157Z,12.64
2022-11-11T11:22:17.458Z,12.69
2022-11-11T11:23:17.841Z,12.72
2022-11-11T11:24:18.236Z,12.74
2022-11-11T11:25:17.486Z,12.75
2022-11-11T11:26:17.896Z,12.76
2022-11-11T11:27:18.191Z,12.77
2022-11-11T11:28:16.996Z,12.79
2022-11-11T11:29:16.932Z,12.80
2022-11-11T11:31:17.187Z,12.85
2022-11-11T11:32:17.562Z,12.88
2022-11-11T11:33:17.937Z,12.91
2022-11-11T11:34:18.302Z,12.91
2022-11-11T11:35:17.740Z,12.93
2022-11-11T11:36:17.860Z,12.95
2022-11-11T11:37:18.224Z,12.94
2022-11-11T11:38:17.182Z,12.94
2022-11-11T11:39:17.445Z,12.96
2022-11-11T11:40:17.471Z,12.98
2022-11-11T11:41:17.660Z,13.02
2022-11-11T11:42:17.388Z,13.02
2022-11-11T11:43:17.124Z,13.04
2022-11-11T11:44:17.214Z,13.05
2022-11-11T11:45:17.268Z,13.06
2022-11-11T11:46:17.248Z,13.13
2022-11-11T11:47:17.168Z,13.13
2022-11-11T11:48:47.965Z,13.14
2022-11-11T11:49:17.027Z,13.14
2022-11-11T11:50:17.010Z,13.13
2022-11-11T11:51:17.093Z,13.14
2022-11-11T11:52:16.412Z,13.15
2022-11-11T11:53:17.153Z,13.16
2022-11-11T11:54:16.565Z,13.18
2022-11-11T11:55:17.585Z,13.19
2022-11-11T11:56:17.544Z,13.19
2022-11-11T11:57:17.588Z,13.18
2022-11-11T11:58:17.951Z,13.20
2022-11-11T11:59:17.886Z,13.22
2022-11-11T12:00:18.892Z,13.22
2022-11-11T12:01:18.120Z,13.23
2022-11-11T12:02:17.241Z,13.22
2022-11-11T12:03:17.584Z,13.22
2022-11-11T12:04:17.603Z,13.23
2022-11-11T12:05:17.914Z,13.26
2022-11-11T12:06:17.557Z,13.30
2022-11-11T12:07:17.811Z,13.34
2022-11-11T12:08:17.492Z,13.37
2022-11-11T12:09:21.932Z,13.37
2022-11-11T12:10:17.636Z,13.38
2022-11-11T12:11:17.935Z,13.42
2022-11-11T12:12:17.394Z,13.42
2022-11-11T12:13:17.348Z,13.41
2022-11-11T12:14:17.029Z,13.44
2022-11-11T12:15:21.979Z,13.54
2022-11-11T12:16:18.153Z,13.53
2022-11-11T12:17:22.168Z,13.52
2022-11-11T12:18:17.200Z,13.55
2022-11-11T12:19:17.100Z,13.60
2022-11-11T12:20:17.179Z,13.63
2022-11-11T12:21:24.904Z,13.65
2022-11-11T12:22:18.021Z,13.65
2022-11-11T12:23:16.889Z,13.65
2022-11-11T12:24:17.479Z,13.68
2022-11-11T12:25:17.549Z,13.69
2022-11-11T12:26:17.641Z,13.76
2022-11-11T12:27:31.218Z,13.78
2022-11-11T12:28:16.610Z,13.78
2022-11-11T12:29:17.684Z,13.79
2022-11-11T12:30:17.853Z,13.82
2022-11-11T12:31:18.074Z,13.85
2022-11-11T12:32:17.266Z,13.86
2022-11-11T12:33:17.146Z,13.88
2022-11-11T12:34:16.660Z,13.88
2022-11-11T12:35:18.018Z,13.89
2022-11-11T12:36:17.156Z,13.90
2022-11-11T12:37:17.200Z,13.91
2022-11-11T12:38:17.017Z,13.92
2022-11-11T12:39:17.209Z,13.95
2022-11-11T12:40:17.033Z,13.96
2022-11-11T12:41:16.899Z,13.97
2022-11-11T12:42:17.534Z,13.98
2022-11-11T12:43:17.293Z,13.99
2022-11-11T12:44:16.772Z,14
2022-11-11T12:45:17.763Z,13.98
2022-11-11T12:46:17.213Z,13.98
2022-11-11T12:47:17.180Z,13.97
2022-11-11T12:48:16.812Z,13.97
2022-11-11T12:49:17.590Z,13.97
2022-11-11T12:50:17.667Z,13.96
2022-11-11T12:51:32.131Z,13.98
2022-11-11T12:52:17.227Z,13.98
2022-11-11T12:53:16.917Z,13.98
2022-11-11T12:54:17.740Z,13.99
2022-11-11T12:55:17.575Z,14.02
2022-11-11T12:56:16.885Z,14.02
2022-11-11T12:57:18.140Z,14.06
2022-11-11T12:58:16.921Z,14.05
2022-11-11T12:59:17.940Z,14.04